Time;durP1;ratioP1;P1;durP2;ratioP2;P2;SDS_P1;SDS_P2;PMS_P1;PMS_P2;Temp;Humidity;BMP_temperature;BMP_pressure;BME280_temperature;BME280_humidity;BME280_pressure;Samples;Min_cycle;Max_cycle;Signal;HPM_P1;HPM_P2
2022/10/22 00:01:19;;;;;;;6.32;2.33;;;17.50;99.90;;;;;;5039497;28;20034;-77
2022/10/22 00:03:44;;;;;;;5.97;2.25;;;17.40;99.90;;;;;;5039122;28;20104;-77
2022/10/22 00:06:10;;;;;;;7.75;2.67;;;17.40;99.90;;;;;;5039543;28;20105;-77
2022/10/22 00:08:36;;;;;;;6.63;2.58;;;17.40;99.90;;;;;;5039041;28;20033;-77
2022/10/22 00:11:14;;;;;;;7.13;3.15;;;17.40;99.90;;;;;;5039271;28;20514;-77
2022/10/22 00:13:40;;;;;;;7.13;3.55;;;17.40;99.90;;;;;;5038848;28;20100;-77
2022/10/22 00:16:06;;;;;;;9.45;2.53;;;17.40;99.90;;;;;;5039283;28;20029;-77
2022/10/22 00:18:32;;;;;;;3.95;2.50;;;17.40;99.90;;;;;;5054307;28;20021;-77
2022/10/22 00:20:58;;;;;;;3.38;2.33;;;17.30;99.90;;;;;;5033871;28;20028;-77
2022/10/22 00:23:24;;;;;;;9.65;2.35;;;17.30;99.90;;;;;;5034319;28;20036;-77
2022/10/22 00:25:51;;;;;;;8.60;2.95;;;17.30;99.90;;;;;;5038979;28;20040;-77
2022/10/22 00:28:17;;;;;;;8.40;2.75;;;17.20;99.90;;;;;;5038726;28;20514;-75
2022/10/22 00:30:43;;;;;;;5.95;2.83;;;17.20;99.90;;;;;;5038620;28;20026;-75
2022/10/22 00:33:08;;;;;;;4.90;2.30;;;17.20;99.90;;;;;;5038696;28;20021;-76
2022/10/22 00:35:34;;;;;;;4.15;2.33;;;17.10;99.90;;;;;;5038766;28;20053;-76
2022/10/22 00:38:00;;;;;;;5.47;2.53;;;17.10;99.90;;;;;;5037830;28;20788;-76
2022/10/22 00:40:26;;;;;;;4.95;2.35;;;17.10;99.90;;;;;;5034247;28;20026;-76
2022/10/22 00:42:52;;;;;;;6.25;2.35;;;17.10;99.90;;;;;;5033612;28;20032;-76
2022/10/22 00:45:24;;;;;;;8.13;2.95;;;17.00;99.90;;;;;;5038552;28;20076;-76
2022/10/22 00:48:26;;;;;;;15.45;3.63;;;17.00;99.90;;;;;;5038460;28;20135;-76
2022/10/22 00:50:57;;;;;;;11.55;4.00;;;16.90;99.90;;;;;;5033815;28;20030;-76
2022/10/22 00:53:28;;;;;;;;;;;16.80;99.90;;;;;;5038873;28;20073;-76
2022/10/22 00:55:55;;;;;;;8.77;2.60;;;16.70;99.90;;;;;;5036648;28;20003;-76
2022/10/22 00:58:25;;;;;;;7.68;2.85;;;16.60;99.90;;;;;;5020279;28;20033;-76
2022/10/22 01:00:51;;;;;;;5.50;2.92;;;16.60;99.90;;;;;;5037056;28;20029;-76
2022/10/22 01:03:17;;;;;;;5.25;3.00;;;16.50;99.90;;;;;;5036794;28;20029;-76
2022/10/22 01:05:51;;;;;;;4.28;2.53;;;16.40;99.90;;;;;;5038294;28;20013;-76
2022/10/22 01:08:38;;;;;;;6.05;3.60;;;16.30;99.90;;;;;;5036988;28;20032;-76
2022/10/22 01:11:03;;;;;;;7.45;2.88;;;16.20;99.90;;;;;;5046353;28;20041;-76
2022/10/22 01:13:58;;;;;;;6.05;2.92;;;16.10;99.90;;;;;;5036551;28;20553;-76
2022/10/22 01:17:04;;;;;;;9.65;3.08;;;16.00;99.90;;;;;;5038309;28;20156;-76
2022/10/22 01:19:38;;;;;;;12.23;3.42;;;15.90;99.90;;;;;;5032278;28;20137;-76
2022/10/22 01:22:17;;;;;;;6.63;3.45;;;15.80;99.90;;;;;;5035361;28;20036;-76
2022/10/22 01:24:59;;;;;;;5.85;3.15;;;15.70;99.90;;;;;;5037873;28;20093;-76
2022/10/22 01:27:38;;;;;;;7.30;3.97;;;15.60;99.90;;;;;;5027118;28;20024;-76
2022/10/22 01:30:09;;;;;;;6.47;3.50;;;15.50;99.90;;;;;;5037688;28;20481;-76
2022/10/22 01:32:51;;;;;;;11.20;3.53;;;15.40;99.90;;;;;;5037421;28;20075;-77
2022/10/22 01:35:22;;;;;;;7.65;2.95;;;15.40;99.90;;;;;;5037584;28;20468;-77
2022/10/22 01:37:52;;;;;;;7.13;3.35;;;15.30;99.90;;;;;;5036478;28;20045;-77
2022/10/22 01:40:20;;;;;;;6.63;3.10;;;15.20;99.90;;;;;;5036495;28;20030;-76
2022/10/22 01:43:04;;;;;;;9.48;3.55;;;15.20;99.90;;;;;;5037696;28;20029;-77
2022/10/22 01:45:35;;;;;;;8.90;3.85;;;15.10;99.90;;;;;;5027373;28;20040;-77
2022/10/22 01:48:25;;;;;;;6.38;3.40;;;15.10;99.90;;;;;;5034148;28;20362;-77
2022/10/22 01:51:22;;;;;;;6.60;3.33;;;15.00;99.90;;;;;;5037272;28;20021;-76
2022/10/22 01:53:57;;;;;;;4.65;2.75;;;15.00;99.90;;;;;;5037495;28;20478;-77
2022/10/22 01:56:31;;;;;;;7.75;3.15;;;15.00;99.90;;;;;;5037096;28;20559;-77
2022/10/22 01:59:11;;;;;;;5.90;3.05;;;14.90;99.90;;;;;;5023619;28;20032;-77
2022/10/22 02:01:40;;;;;;;12.60;3.85;;;14.90;99.90;;;;;;5026134;28;20018;-77
2022/10/22 02:04:28;;;;;;;14.45;3.63;;;14.80;99.90;;;;;;5026617;28;20044;-77
2022/10/22 02:06:59;;;;;;;13.23;4.00;;;14.80;99.90;;;;;;5030497;28;20084;-77
2022/10/22 02:09:28;;;;;;;5.75;3.28;;;14.80;99.90;;;;;;5037048;28;20025;-76
2022/10/22 02:11:55;;;;;;;6.45;3.08;;;14.80;99.90;;;;;;5035271;28;20044;-77
2022/10/22 02:14:24;;;;;;;8.23;3.83;;;14.80;99.90;;;;;;5036881;28;20061;-78
2022/10/22 02:16:50;;;;;;;10.13;3.72;;;14.80;99.90;;;;;;5035521;28;20017;-77
2022/10/22 02:19:24;;;;;;;8.82;3.50;;;14.80;99.90;;;;;;5035557;28;20068;-77
2022/10/22 02:21:50;;;;;;;10.23;3.63;;;14.70;99.90;;;;;;5036779;28;20021;-77
2022/10/22 02:24:16;;;;;;;6.75;3.58;;;14.70;99.90;;;;;;5037046;28;20046;-76
2022/10/22 02:26:59;;;;;;;6.70;3.33;;;14.60;99.90;;;;;;5036818;28;20088;-78
2022/10/22 02:29:34;;;;;;;8.77;3.78;;;14.60;99.90;;;;;;5025054;28;20026;-77
2022/10/22 02:32:02;;;;;;;8.55;3.90;;;14.60;99.90;;;;;;5051237;28;20030;-76
2022/10/22 02:34:30;;;;;;;4.72;3.22;;;14.50;99.90;;;;;;5036915;28;20179;-76
2022/10/22 02:36:59;;;;;;;14.38;4.13;;;14.50;99.90;;;;;;5036480;28;20547;-76
2022/10/22 02:39:26;;;;;;;8.70;3.97;;;14.50;99.90;;;;;;5035737;28;20401;-78
2022/10/22 02:41:54;;;;;;;5.18;3.67;;;14.50;99.90;;;;;;5036937;28;20028;-77
2022/10/22 02:44:21;;;;;;;7.70;3.58;;;14.50;99.90;;;;;;5038994;28;20091;-77
2022/10/22 02:46:48;;;;;;;8.57;3.75;;;14.40;99.90;;;;;;5041054;28;20018;-77
2022/10/22 02:49:13;;;;;;;9.60;3.42;;;14.40;99.90;;;;;;5039205;28;20030;-77
2022/10/22 02:51:39;;;;;;;9.90;3.53;;;14.40;99.90;;;;;;5040995;28;20064;-76
2022/10/22 02:54:05;;;;;;;9.20;3.40;;;14.40;99.90;;;;;;5040680;28;20025;-76
2022/10/22 02:56:31;;;;;;;7.47;3.33;;;14.40;99.90;;;;;;5039441;28;20026;-77
2022/10/22 02:58:57;;;;;;;8.32;4.03;;;14.30;99.90;;;;;;5040240;28;20478;-76
2022/10/22 03:01:23;;;;;;;8.10;3.75;;;14.30;99.90;;;;;;5040344;28;20044;-76
2022/10/22 03:03:49;;;;;;;5.70;3.38;;;14.30;99.90;;;;;;5053769;28;20076;-76
2022/10/22 03:06:15;;;;;;;7.63;3.90;;;14.30;99.90;;;;;;5035145;28;20029;-76
2022/10/22 03:08:41;;;;;;;8.27;3.75;;;14.30;99.90;;;;;;5066471;28;20056;-77
2022/10/22 03:11:07;;;;;;;11.95;4.68;;;14.30;99.90;;;;;;5039994;28;20025;-77
2022/10/22 03:13:32;;;;;;;7.50;3.45;;;14.30;99.90;;;;;;5038754;28;20029;-77
2022/10/22 03:15:58;;;;;;;8.30;3.67;;;14.20;99.90;;;;;;5040302;28;20021;-76
2022/10/22 03:18:24;;;;;;;4.10;3.25;;;14.20;99.90;;;;;;5038841;28;20037;-77
2022/10/22 03:20:58;;;;;;;7.53;3.38;;;14.20;99.90;;;;;;5040421;28;20027;-77
2022/10/22 03:23:24;;;;;;;6.00;3.47;;;14.20;99.90;;;;;;5039860;28;20089;-79
2022/10/22 03:25:50;;;;;;;11.55;4.13;;;14.10;99.90;;;;;;5040168;28;20052;-79
2022/10/22 03:28:17;;;;;;;8.98;4.43;;;14.10;99.90;;;;;;5039793;28;20014;-79
2022/10/22 03:30:43;;;;;;;8.43;3.60;;;14.00;99.90;;;;;;5038236;28;20022;-79
2022/10/22 03:33:08;;;;;;;7.88;3.30;;;14.00;99.90;;;;;;5038481;28;20032;-76
2022/10/22 03:35:39;;;;;;;5.85;3.22;;;14.00;99.90;;;;;;5038832;28;20033;-76
2022/10/22 03:38:05;;;;;;;6.28;3.72;;;14.00;99.90;;;;;;5039875;28;20021;-76
2022/10/22 03:40:31;;;;;;;6.38;4.07;;;13.90;99.90;;;;;;5039985;28;20029;-79
2022/10/22 03:42:57;;;;;;;13.40;4.13;;;13.90;99.90;;;;;;5039557;28;20489;-79
2022/10/22 03:45:23;;;;;;;11.80;4.03;;;13.90;99.90;;;;;;5039874;28;20022;-79
2022/10/22 03:47:49;;;;;;;8.00;3.78;;;13.90;99.90;;;;;;5039492;28;20088;-76
2022/10/22 03:50:16;;;;;;;10.15;3.70;;;13.80;99.90;;;;;;5039686;28;20108;-79
2022/10/22 03:52:41;;;;;;;7.25;4.07;;;13.90;99.90;;;;;;5038245;28;20033;-79
2022/10/22 03:55:08;;;;;;;7.05;3.92;;;13.80;99.90;;;;;;5039695;28;20105;-78
2022/10/22 03:57:34;;;;;;;9.70;3.92;;;13.80;99.90;;;;;;5039388;28;20497;-77
2022/10/22 04:00:00;;;;;;;9.15;4.07;;;13.80;99.90;;;;;;5039666;28;20072;-77
2022/10/22 04:02:26;;;;;;;9.40;3.95;;;13.80;99.90;;;;;;5038567;28;20021;-77
2022/10/22 04:04:52;;;;;;;8.02;4.35;;;13.70;99.90;;;;;;5039255;28;20018;-77
2022/10/22 04:07:18;;;;;;;7.35;4.40;;;13.70;99.90;;;;;;5039249;28;20382;-77
2022/10/22 04:09:43;;;;;;;8.63;3.85;;;13.70;99.90;;;;;;5037903;28;20024;-77
2022/10/22 04:12:09;;;;;;;6.95;3.88;;;13.70;99.90;;;;;;5038831;28;20049;-77
2022/10/22 04:14:35;;;;;;;7.88;4.05;;;13.60;99.90;;;;;;5039146;28;20481;-77
2022/10/22 04:17:01;;;;;;;10.13;3.90;;;13.60;99.90;;;;;;5039175;28;20040;-77
2022/10/22 04:19:27;;;;;;;5.57;3.75;;;13.60;99.90;;;;;;5039104;28;20025;-77
2022/10/22 04:21:53;;;;;;;8.50;4.25;;;13.60;99.90;;;;;;5039266;28;20486;-77
2022/10/22 04:24:18;;;;;;;6.95;4.40;;;13.60;99.90;;;;;;5037449;28;20033;-77
2022/10/22 04:26:44;;;;;;;8.13;4.68;;;13.50;99.90;;;;;;5039046;28;20165;-77
2022/10/22 04:29:11;;;;;;;7.72;3.90;;;13.60;99.90;;;;;;5037492;28;20022;-77
2022/10/22 04:31:36;;;;;;;13.05;4.40;;;13.50;99.90;;;;;;5037574;28;20200;-77
2022/10/22 04:34:02;;;;;;;6.85;4.13;;;13.50;99.90;;;;;;5037551;28;20100;-77
2022/10/22 04:36:28;;;;;;;10.00;4.68;;;13.50;99.90;;;;;;5037094;28;20032;-77
2022/10/22 04:38:58;;;;;;;8.68;4.38;;;13.50;99.90;;;;;;5037757;28;20029;-77
2022/10/22 04:41:27;;;;;;;15.63;4.45;;;13.50;99.90;;;;;;5037627;28;20025;-77
2022/10/22 04:43:54;;;;;;;7.32;4.20;;;13.50;99.90;;;;;;5038430;28;20033;-77
2022/10/22 04:46:21;;;;;;;10.73;4.75;;;13.40;99.90;;;;;;5037361;28;20108;-77
2022/10/22 04:48:47;;;;;;;9.63;5.13;;;13.40;99.90;;;;;;5038433;28;20077;-77
2022/10/22 04:51:15;;;;;;;7.47;4.70;;;13.40;99.90;;;;;;5038469;28;20083;-77
2022/10/22 04:53:41;;;;;;;7.93;4.47;;;13.40;99.90;;;;;;5037124;28;20118;-77
2022/10/22 04:56:12;;;;;;;7.88;4.25;;;13.40;99.90;;;;;;5037229;28;20560;-77
2022/10/22 04:58:38;;;;;;;12.48;4.50;;;13.40;99.90;;;;;;5038339;28;20049;-77
2022/10/22 05:01:22;;;;;;;7.22;4.00;;;13.30;99.90;;;;;;5038388;28;20102;-77
2022/10/22 05:03:50;;;;;;;6.55;4.43;;;13.30;99.90;;;;;;5038157;28;20025;-77
2022/10/22 05:06:16;;;;;;;12.32;4.47;;;13.30;99.90;;;;;;5035767;28;20030;-76
2022/10/22 05:08:43;;;;;;;6.88;4.32;;;13.20;99.90;;;;;;5038161;28;20448;-77
2022/10/22 05:11:16;;;;;;;8.63;5.00;;;13.20;99.90;;;;;;5036182;28;20052;-77
2022/10/22 05:13:42;;;;;;;7.22;4.30;;;13.20;99.90;;;;;;5037888;28;20416;-77
2022/10/22 05:16:08;;;;;;;10.43;4.32;;;13.20;99.90;;;;;;5038166;28;20029;-77
2022/10/22 05:18:35;;;;;;;8.32;4.38;;;13.20;99.90;;;;;;5037937;28;20048;-77
2022/10/22 05:21:02;;;;;;;7.60;4.43;;;13.20;99.90;;;;;;5037886;28;20044;-77
2022/10/22 05:23:28;;;;;;;8.95;4.57;;;13.20;99.90;;;;;;5036632;28;20419;-77
2022/10/22 05:25:54;;;;;;;11.13;5.45;;;13.30;99.90;;;;;;5036584;28;20021;-77
2022/10/22 05:28:20;;;;;;;7.85;5.07;;;13.30;99.90;;;;;;5037698;28;20025;-78
2022/10/22 05:30:54;;;;;;;11.68;5.75;;;13.30;99.90;;;;;;5036545;28;20017;-77
2022/10/22 05:33:21;;;;;;;8.27;4.57;;;13.30;99.90;;;;;;5037481;28;20486;-77
2022/10/22 05:35:48;;;;;;;7.10;4.70;;;13.40;99.90;;;;;;5037761;28;20022;-77
2022/10/22 05:38:14;;;;;;;8.15;4.57;;;13.40;99.90;;;;;;5037502;28;20416;-77
2022/10/22 05:40:40;;;;;;;10.85;4.80;;;13.50;99.90;;;;;;5036853;28;20430;-77
2022/10/22 05:43:06;;;;;;;9.52;4.78;;;13.50;99.90;;;;;;5035810;28;20068;-77
2022/10/22 05:45:35;;;;;;;7.20;4.60;;;13.40;99.90;;;;;;5037627;28;20048;-77
2022/10/22 05:48:01;;;;;;;6.27;4.33;;;13.40;99.90;;;;;;5037380;28;20030;-77
2022/10/22 05:50:27;;;;;;;6.10;4.30;;;13.50;99.90;;;;;;5037383;28;20104;-77
2022/10/22 05:52:53;;;;;;;13.40;5.18;;;13.50;99.90;;;;;;5037231;28;20022;-77
2022/10/22 05:55:19;;;;;;;7.78;4.45;;;13.50;99.90;;;;;;5036462;28;20025;-77
2022/10/22 05:57:48;;;;;;;7.50;4.90;;;13.50;99.90;;;;;;5037066;28;20025;-77
2022/10/22 06:00:14;;;;;;;6.85;4.28;;;13.50;99.90;;;;;;5036202;28;20030;-77
2022/10/22 06:02:40;;;;;;;12.57;5.13;;;13.50;99.90;;;;;;5035655;28;20112;-77
2022/10/22 06:05:06;;;;;;;10.00;5.00;;;13.50;99.90;;;;;;5052526;28;20083;-77
2022/10/22 06:07:32;;;;;;;11.23;4.30;;;13.50;99.90;;;;;;5037048;28;20025;-76
2022/10/22 06:09:59;;;;;;;7.53;4.20;;;13.50;99.90;;;;;;5037279;28;20079;-77
2022/10/22 06:12:25;;;;;;;8.00;4.50;;;13.50;99.90;;;;;;5034682;28;20045;-77
2022/10/22 06:14:51;;;;;;;10.13;4.22;;;13.50;99.90;;;;;;5037007;28;20532;-77
2022/10/22 06:17:18;;;;;;;8.43;4.72;;;13.50;99.90;;;;;;5036380;28;20021;-77
2022/10/22 06:19:44;;;;;;;12.13;4.45;;;13.40;99.90;;;;;;5036599;28;20063;-77
2022/10/22 06:22:10;;;;;;;12.50;5.15;;;13.40;99.90;;;;;;5036832;28;20117;-77
2022/10/22 06:24:36;;;;;;;9.77;5.18;;;13.40;99.90;;;;;;5029937;28;20488;-77
2022/10/22 06:27:01;;;;;;;7.32;3.88;;;13.40;99.90;;;;;;5036662;28;20053;-77
2022/10/22 06:29:27;;;;;;;7.43;4.15;;;13.40;99.90;;;;;;5036611;28;20053;-77
2022/10/22 06:31:53;;;;;;;10.60;5.75;;;13.40;99.90;;;;;;5036867;28;20025;-77
2022/10/22 06:34:19;;;;;;;8.90;4.47;;;13.40;99.90;;;;;;5035542;28;20026;-77
2022/10/22 06:36:46;;;;;;;6.88;4.63;;;13.40;99.90;;;;;;5036653;28;20014;-77
2022/10/22 06:39:14;;;;;;;9.18;4.75;;;13.40;99.90;;;;;;5035162;28;20029;-78
2022/10/22 06:41:40;;;;;;;7.13;4.93;;;13.40;99.90;;;;;;5034686;28;20450;-78
2022/10/22 06:44:07;;;;;;;12.20;4.85;;;13.40;99.90;;;;;;5035639;28;20022;-78
2022/10/22 06:46:33;;;;;;;7.20;4.57;;;13.40;99.90;;;;;;5031597;28;20033;-78
2022/10/22 06:49:04;;;;;;;9.80;5.28;;;13.40;99.90;;;;;;5035350;28;20025;-78
2022/10/22 06:51:30;;;;;;;12.38;6.43;;;13.40;99.90;;;;;;5036467;28;20393;-78
2022/10/22 06:53:57;;;;;;;9.05;5.10;;;13.60;99.90;;;;;;5036555;28;20025;-78
2022/10/22 06:56:26;;;;;;;13.32;5.50;;;13.60;99.90;;;;;;5039383;28;20037;-78
2022/10/22 06:58:53;;;;;;;11.73;5.38;;;13.60;99.90;;;;;;5033197;28;20157;-78
2022/10/22 07:01:22;;;;;;;12.88;4.80;;;13.70;99.90;;;;;;5028106;28;20056;-78
2022/10/22 07:03:50;;;;;;;10.15;4.78;;;13.60;99.90;;;;;;5030336;28;20084;-78
2022/10/22 07:06:16;;;;;;;7.80;5.28;;;13.60;99.90;;;;;;5036820;28;20025;-78
2022/10/22 07:08:42;;;;;;;6.65;4.88;;;13.70;99.90;;;;;;5033058;28;20033;-78
2022/10/22 07:11:14;;;;;;;9.93;5.18;;;13.60;99.90;;;;;;5036220;28;20044;-78
2022/10/22 07:13:40;;;;;;;8.73;4.78;;;13.60;99.90;;;;;;5036251;28;20501;-78
2022/10/22 07:16:07;;;;;;;9.18;5.32;;;13.60;99.90;;;;;;5035565;28;20064;-78
2022/10/22 07:18:34;;;;;;;7.50;5.78;;;13.60;99.90;;;;;;5036156;28;20075;-78
2022/10/22 07:21:00;;;;;;;15.85;7.07;;;13.60;99.90;;;;;;5036536;28;20100;-78
2022/10/22 07:23:27;;;;;;;10.43;5.75;;;13.60;99.90;;;;;;5036430;28;20037;-78
2022/10/22 07:25:53;;;;;;;13.40;6.25;;;13.60;99.90;;;;;;5036380;28;20014;-78
2022/10/22 07:28:19;;;;;;;13.90;5.57;;;13.70;99.90;;;;;;5036220;28;20393;-78
2022/10/22 07:30:45;;;;;;;8.13;5.15;;;13.70;99.90;;;;;;5038283;28;20080;-77
2022/10/22 07:33:11;;;;;;;9.63;5.45;;;13.80;99.90;;;;;;5039921;28;20582;-78
2022/10/22 07:35:38;;;;;;;8.98;5.25;;;13.90;99.90;;;;;;5038595;28;20517;-78
2022/10/22 07:38:05;;;;;;;9.20;5.88;;;14.10;99.90;;;;;;5036799;28;20032;-77
2022/10/22 07:40:31;;;;;;;10.52;5.10;;;14.20;99.90;;;;;;5039931;28;20025;-77
2022/10/22 07:42:57;;;;;;;12.30;7.20;;;14.30;99.90;;;;;;5039702;28;20013;-77
2022/10/22 07:45:22;;;;;;;10.88;5.88;;;14.50;99.90;;;;;;5039737;28;20039;-77
2022/10/22 07:47:48;;;;;;;10.73;6.07;;;14.70;99.90;;;;;;5054322;28;20117;-78
2022/10/22 07:50:15;;;;;;;10.52;5.75;;;14.70;99.90;;;;;;5038843;28;20025;-78
2022/10/22 07:52:41;;;;;;;5.20;4.28;;;14.70;99.90;;;;;;5038470;28;20018;-78
2022/10/22 07:55:07;;;;;;;6.82;5.43;;;14.80;99.90;;;;;;5038654;28;20485;-78
2022/10/22 07:57:35;;;;;;;12.95;5.30;;;14.80;99.90;;;;;;5036944;28;20064;-77
2022/10/22 08:00:03;;;;;;;10.68;5.95;;;14.80;99.90;;;;;;5038970;28;20029;-78
2022/10/22 08:02:29;;;;;;;10.57;5.15;;;14.80;99.90;;;;;;5037066;28;20440;-78
2022/10/22 08:04:55;;;;;;;11.70;5.05;;;14.80;99.90;;;;;;5038254;28;20025;-78
2022/10/22 08:07:22;;;;;;;11.63;6.18;;;14.90;99.90;;;;;;5037766;28;20026;-78
2022/10/22 08:09:48;;;;;;;10.23;5.18;;;15.00;99.90;;;;;;5038409;28;20540;-78
2022/10/22 08:12:14;;;;;;;11.48;5.18;;;15.10;99.90;;;;;;5037861;28;20049;-78
2022/10/22 08:14:40;;;;;;;7.68;5.40;;;15.10;99.90;;;;;;5038829;28;20033;-78
2022/10/22 08:17:06;;;;;;;13.93;4.85;;;15.20;99.90;;;;;;5039093;28;20041;-80
2022/10/22 08:19:32;;;;;;;10.55;4.55;;;15.30;99.90;;;;;;5038933;28;20068;-78
2022/10/22 08:21:58;;;;;;;14.18;5.68;;;15.30;99.90;;;;;;5038681;28;20076;-77
2022/10/22 08:24:25;;;;;;;6.38;4.55;;;15.50;99.90;;;;;;5036925;28;20067;-78
2022/10/22 08:26:53;;;;;;;14.05;5.53;;;15.60;99.90;;;;;;5037734;28;20334;-77
2022/10/22 08:29:21;;;;;;;11.00;6.25;;;15.70;99.90;;;;;;5053514;28;20112;-77
2022/10/22 08:31:48;;;;;;;9.85;4.43;;;15.70;99.90;;;;;;5054207;28;20563;-77
2022/10/22 08:34:14;;;;;;;9.73;4.40;;;15.90;99.90;;;;;;5037389;28;20029;-77
2022/10/22 08:36:40;;;;;;;10.27;4.55;;;16.00;99.90;;;;;;5038688;28;20036;-77
2022/10/22 08:39:06;;;;;;;9.27;3.90;;;16.10;99.90;;;;;;5038053;28;20459;-77
2022/10/22 08:41:43;;;;;;;12.45;4.88;;;16.20;99.90;;;;;;5036512;28;20052;-77
2022/10/22 08:44:17;;;;;;;9.93;4.38;;;16.30;99.90;;;;;;5038702;28;20060;-77
2022/10/22 08:47:02;;;;;;;9.05;4.28;;;16.50;99.90;;;;;;5030145;28;20561;-77
2022/10/22 08:49:33;;;;;;;11.88;4.32;;;16.60;99.90;;;;;;5031387;28;20446;-77
2022/10/22 08:51:59;;;;;;;12.95;4.60;;;16.70;99.90;;;;;;5037378;28;20034;-77
2022/10/22 08:54:34;;;;;;;6.13;3.75;;;16.90;99.90;;;;;;5038142;28;20057;-77
2022/10/22 08:57:45;;;;;;;7.30;3.90;;;17.00;99.90;;;;;;5038246;28;20036;-77
2022/10/22 09:00:21;;;;;;;;;;;17.10;99.90;;;;;;5035528;28;20029;-77
2022/10/22 09:03:09;;;;;;;8.50;3.83;;;17.20;99.90;;;;;;5037555;28;19905;-77
2022/10/22 09:05:51;;;;;;;12.20;4.07;;;17.30;99.90;;;;;;5036491;28;20143;-76
2022/10/22 09:08:18;;;;;;;11.45;4.53;;;17.40;99.90;;;;;;5029174;28;20557;-76
2022/10/22 09:11:20;;;;;;;13.25;5.75;;;17.60;99.90;;;;;;5029305;28;20021;-77
2022/10/22 09:13:47;;;;;;;14.23;5.57;;;17.70;99.90;;;;;;5032115;28;20041;-77
2022/10/22 09:16:20;;;;;;;12.18;3.90;;;17.80;99.90;;;;;;5031851;28;20033;-77
2022/10/22 09:19:00;;;;;;;11.70;4.13;;;17.90;99.90;;;;;;5036213;28;20028;-77
2022/10/22 09:21:55;;;;;;;13.93;4.87;;;18.10;99.90;;;;;;5037931;28;20032;-77
2022/10/22 09:24:40;;;;;;;10.20;3.95;;;18.20;99.90;;;;;;5033446;28;20564;-77
2022/10/22 09:27:16;;;;;;;9.40;4.60;;;18.30;99.90;;;;;;5041918;28;20382;-77
2022/10/22 09:29:44;;;;;;;11.77;3.42;;;18.40;99.90;;;;;;5037536;28;20381;-76
2022/10/22 09:32:10;;;;;;;7.82;3.20;;;18.50;99.90;;;;;;5037752;28;20077;-77
2022/10/22 09:34:36;;;;;;;17.95;4.15;;;18.60;99.90;;;;;;5037662;28;20521;-77
2022/10/22 09:37:05;;;;;;;10.90;4.00;;;18.80;99.90;;;;;;5036381;28;20053;-77
2022/10/22 09:39:33;;;;;;;7.82;3.03;;;18.80;99.90;;;;;;5037509;28;20029;-77
2022/10/22 09:41:58;;;;;;;6.07;3.05;;;18.90;99.90;;;;;;5037717;28;20504;-77
2022/10/22 09:44:24;;;;;;;7.78;4.15;;;18.90;99.90;;;;;;5037320;28;20033;-77
2022/10/22 09:46:50;;;;;;;10.25;3.30;;;19.00;99.90;;;;;;5037464;28;20018;-77
2022/10/22 09:49:20;;;;;;;10.73;3.90;;;19.20;99.90;;;;;;5036056;28;20025;-77
2022/10/22 09:52:23;;;;;;;9.80;3.80;;;19.30;99.90;;;;;;5037325;28;20060;-77
2022/10/22 09:54:51;;;;;;;8.90;3.88;;;19.40;99.90;;;;;;5037241;28;20034;-77
2022/10/22 09:57:21;;;;;;;8.95;3.63;;;19.50;99.90;;;;;;5035887;28;20037;-78
2022/10/22 09:59:50;;;;;;;12.95;3.70;;;19.60;99.90;;;;;;5037837;28;20159;-78
2022/10/22 10:02:29;;;;;;;9.98;4.38;;;19.70;99.90;;;;;;5035989;28;20083;-78
2022/10/22 10:04:56;;;;;;;9.32;4.38;;;19.80;99.90;;;;;;5036170;28;20095;-77
2022/10/22 10:07:24;;;;;;;5.80;3.50;;;19.90;99.90;;;;;;5036320;28;20013;-78
2022/10/22 10:09:52;;;;;;;7.88;3.25;;;19.90;99.90;;;;;;5037142;28;20386;-80
2022/10/22 10:13:04;;;;;;;8.63;3.50;;;20.00;99.90;;;;;;5036623;28;20455;-79
2022/10/22 10:15:49;;;;;;;14.60;3.80;;;20.10;99.90;;;;;;5029925;28;20510;-80
2022/10/22 10:18:38;;;;;;;8.20;3.55;;;20.20;99.90;;;;;;5052044;28;20048;-79
2022/10/22 10:21:29;;;;;;;7.53;3.10;;;20.20;99.90;;;;;;5030081;28;20061;-80
2022/10/22 10:24:01;;;;;;;7.03;3.05;;;20.30;99.90;;;;;;5036885;28;20029;-79
2022/10/22 10:26:49;;;;;;;4.78;2.80;;;20.40;99.90;;;;;;5037001;28;20013;-79
2022/10/22 10:29:35;;;;;;;8.88;3.03;;;20.50;99.90;;;;;;5035687;28;20029;-78
2022/10/22 10:32:25;;;;;;;11.13;3.60;;;20.60;99.90;;;;;;5035840;28;20068;-79
2022/10/22 10:35:21;;;;;;;8.88;3.72;;;20.80;99.90;;;;;;5034379;28;20034;-78
2022/10/22 10:38:06;;;;;;;11.57;4.85;;;20.90;99.90;;;;;;5030433;28;20024;-78
2022/10/22 10:40:44;;;;;;;13.55;3.00;;;20.90;99.90;;;;;;5035307;28;20102;-78
2022/10/22 10:43:14;;;;;;;12.07;3.35;;;21.00;99.90;;;;;;5033989;28;20041;-78
2022/10/22 10:46:15;;;;;;;9.77;3.37;;;21.10;99.90;;;;;;5035611;28;20026;-77
2022/10/22 10:49:01;;;;;;;8.80;4.07;;;21.10;99.90;;;;;;5040664;28;20264;-77
2022/10/22 10:51:53;;;;;;;12.85;4.07;;;21.20;99.90;;;;;;5035260;28;20072;-78
2022/10/22 10:54:37;;;;;;;16.50;4.00;;;21.40;99.90;;;;;;5048045;28;20044;-77
2022/10/22 10:57:23;;;;;;;10.95;3.78;;;21.50;99.90;;;;;;5036372;28;20056;-78
2022/10/22 11:00:08;;;;;;;14.75;5.13;;;21.60;99.90;;;;;;5036712;28;20649;-77
2022/10/22 11:02:40;;;;;;;11.32;4.35;;;21.70;99.90;;;;;;5048954;28;20025;-78
2022/10/22 11:05:38;;;;;;;17.17;5.18;;;21.80;99.90;;;;;;5037831;28;20029;-78
2022/10/22 11:08:13;;;;;;;18.35;6.00;;;21.80;99.90;;;;;;5027817;28;20171;-78
2022/10/22 11:10:48;;;;;;;14.43;4.82;;;21.90;99.90;;;;;;5039113;28;20026;-77
2022/10/22 11:13:34;;;;;;;19.52;5.40;;;21.80;99.90;;;;;;5040315;28;20033;-78
2022/10/22 11:16:15;;;;;;;12.40;4.63;;;21.90;99.90;;;;;;5040475;28;20013;-77
2022/10/22 11:18:46;;;;;;;17.20;7.03;;;21.80;99.90;;;;;;5037298;28;20472;-78
2022/10/22 11:21:11;;;;;;;;;;;21.90;99.90;;;;;;5039557;28;20071;-77
2022/10/22 11:23:50;;;;;;;14.98;4.85;;;21.90;99.90;;;;;;5037676;28;19913;-79
2022/10/22 11:26:26;;;;;;;15.13;4.53;;;21.90;99.90;;;;;;5054677;28;20049;-78
2022/10/22 11:28:53;;;;;;;17.98;6.13;;;22.00;99.90;;;;;;5054648;28;20026;-79
2022/10/22 11:31:24;;;;;;;12.35;5.68;;;22.00;99.90;;;;;;5038735;28;20116;-78
2022/10/22 11:33:56;;;;;;;14.57;4.50;;;22.00;99.90;;;;;;5039514;28;20100;-79
2022/10/22 11:36:26;;;;;;;19.73;5.78;;;22.00;99.90;;;;;;5038873;28;20033;-78
2022/10/22 11:38:52;;;;;;;12.27;5.15;;;22.10;99.90;;;;;;5038942;28;20571;-77
2022/10/22 11:41:23;;;;;;;12.82;4.75;;;22.10;99.90;;;;;;5038884;28;20057;-79
2022/10/22 11:43:58;;;;;;;13.43;4.65;;;22.30;99.90;;;;;;5038699;28;20052;-78
2022/10/22 11:46:39;;;;;;;10.57;4.30;;;22.40;99.90;;;;;;5038692;28;20102;-79
2022/10/22 11:49:26;;;;;;;11.02;4.15;;;22.40;99.90;;;;;;5036028;28;20034;-77
2022/10/22 11:52:21;;;;;;;13.48;4.85;;;22.50;99.90;;;;;;5038680;28;20017;-77
2022/10/22 11:54:47;;;;;;;12.80;5.03;;;22.50;99.90;;;;;;5038455;28;20029;-77
2022/10/22 11:57:20;;;;;;;23.05;5.32;;;22.50;99.90;;;;;;5039444;28;20586;-78
2022/10/22 11:59:46;;;;;;;14.25;5.15;;;22.60;99.90;;;;;;5036603;28;20018;-77
2022/10/22 12:02:37;;;;;;;15.93;4.63;;;22.70;99.90;;;;;;5039538;28;20412;-80
2022/10/22 12:05:21;;;;;;;14.20;4.93;;;22.70;99.90;;;;;;5039419;28;20026;-79
2022/10/22 12:08:13;;;;;;;16.08;5.22;;;22.80;99.90;;;;;;5031108;28;20033;-77
2022/10/22 12:11:02;;;;;;;14.57;4.03;;;22.90;99.90;;;;;;5037655;28;20075;-77
2022/10/22 12:13:31;;;;;;;14.93;5.07;;;23.10;99.90;;;;;;5038895;28;20036;-77
2022/10/22 12:16:02;;;;;;;14.67;4.43;;;23.30;99.90;;;;;;5037982;28;20072;-77
2022/10/22 12:18:40;;;;;;;22.30;4.47;;;23.30;99.90;;;;;;5038122;28;20256;-76
2022/10/22 12:21:09;;;;;;;14.88;5.00;;;23.20;99.90;;;;;;5037321;28;20055;-77
2022/10/22 12:23:35;;;;;;;13.75;4.63;;;23.10;99.90;;;;;;5038028;28;20029;-77
2022/10/22 12:26:04;;;;;;;11.38;3.65;;;23.00;99.90;;;;;;5038961;28;20084;-76
2022/10/22 12:28:38;;;;;;;14.07;3.95;;;23.00;99.90;;;;;;5038635;28;20022;-75
2022/10/22 12:31:04;;;;;;;12.15;3.97;;;23.00;99.90;;;;;;5032919;28;20033;-76
2022/10/22 12:33:31;;;;;;;10.15;4.18;;;23.00;99.90;;;;;;5036850;28;20022;-76
2022/10/22 12:35:59;;;;;;;14.45;4.10;;;22.90;99.90;;;;;;5038944;28;20071;-77
2022/10/22 12:38:25;;;;;;;20.48;4.47;;;23.00;99.90;;;;;;5038831;28;20021;-76
2022/10/22 12:40:54;;;;;;;11.93;3.55;;;23.00;99.90;;;;;;5039186;28;20037;-76
2022/10/22 12:43:29;;;;;;;11.93;3.20;;;22.90;99.90;;;;;;5037944;28;20020;-76
2022/10/22 12:45:57;;;;;;;11.80;4.18;;;22.90;99.90;;;;;;5053601;28;20029;-76
2022/10/22 12:48:27;;;;;;;10.93;4.80;;;22.90;99.90;;;;;;5037098;28;20041;-76
2022/10/22 12:50:57;;;;;;;13.30;3.70;;;22.80;99.90;;;;;;5038485;28;20392;-76
2022/10/22 12:53:31;;;;;;;9.50;3.50;;;22.80;99.90;;;;;;5037077;28;20382;-75
2022/10/22 12:56:06;;;;;;;10.35;3.45;;;22.80;99.90;;;;;;5037180;28;20056;-76
2022/10/22 12:58:48;;;;;;;14.45;3.30;;;22.90;99.90;;;;;;5033677;28;20021;-75
2022/10/22 13:01:16;;;;;;;7.78;3.75;;;22.90;99.90;;;;;;5036507;28;20393;-77
2022/10/22 13:03:45;;;;;;;12.52;3.40;;;22.90;99.90;;;;;;5038404;28;20075;-76